Time;durP1;ratioP1;P1;durP2;ratioP2;P2;SDS_P1;SDS_P2;PMS_P1;PMS_P2;Temp;Humidity;BMP_temperature;BMP_pressure;BME280_temperature;BME280_humidity;BME280_pressure;Samples;Min_cycle;Max_cycle;Signal;HPM_P1;HPM_P2
2021/10/12 00:02:15;;;;;;;2.57;1.10;;;9.20;99.90;;;;;;5102770;28;20201;-52
2021/10/12 00:04:42;;;;;;;7.20;1.67;;;9.20;99.90;;;;;;5102693;28;20205;-49
2021/10/12 00:07:11;;;;;;;9.60;1.30;;;9.20;99.90;;;;;;5101845;28;20205;-53
2021/10/12 00:09:37;;;;;;;5.47;1.00;;;9.30;99.90;;;;;;5092428;27;20205;-49
2021/10/12 00:12:04;;;;;;;3.80;1.10;;;9.30;99.90;;;;;;5104270;28;20197;-47
2021/10/12 00:14:31;;;;;;;3.33;1.13;;;9.30;99.90;;;;;;5100432;28;20217;-50
2021/10/12 00:16:58;;;;;;;3.80;1.20;;;9.30;99.90;;;;;;5104716;28;20534;-46
2021/10/12 00:19:24;;;;;;;2.30;0.90;;;9.30;99.90;;;;;;5089442;28;20213;-45
2021/10/12 00:21:51;;;;;;;3.17;1.20;;;9.30;99.90;;;;;;5104900;27;20201;-49
2021/10/12 00:24:19;;;;;;;6.60;1.70;;;9.30;99.90;;;;;;5090110;28;20595;-48
2021/10/12 00:26:45;;;;;;;5.83;1.10;;;9.30;99.90;;;;;;5102530;28;20216;-50
2021/10/12 00:29:15;;;;;;;4.03;1.30;;;9.30;99.90;;;;;;5101757;28;20200;-52
2021/10/12 00:31:41;;;;;;;3.60;1.30;;;9.30;99.90;;;;;;5094235;28;20205;-48
2021/10/12 00:34:08;;;;;;;2.90;1.53;;;9.30;99.90;;;;;;5104459;28;20224;-54
2021/10/12 00:36:35;;;;;;;5.43;1.60;;;9.40;99.90;;;;;;5100361;28;20834;-49
2021/10/12 00:39:02;;;;;;;3.90;1.77;;;9.40;99.90;;;;;;5104208;28;20271;-44
2021/10/12 00:41:30;;;;;;;1.40;1.17;;;9.40;99.90;;;;;;5086192;27;20228;-46
2021/10/12 00:43:57;;;;;;;2.93;1.13;;;9.40;99.90;;;;;;5103492;28;20235;-49
2021/10/12 00:46:23;;;;;;;1.83;1.03;;;9.40;99.90;;;;;;5100818;28;20213;-50
2021/10/12 00:48:50;;;;;;;3.37;1.00;;;9.40;99.90;;;;;;5103755;28;20193;-50
2021/10/12 00:51:17;;;;;;;3.40;1.20;;;9.40;99.90;;;;;;5102036;28;20209;-50
2021/10/12 00:53:43;;;;;;;4.97;1.50;;;9.40;99.90;;;;;;5102218;28;20212;-46
2021/10/12 00:56:12;;;;;;;1.37;0.93;;;9.40;99.90;;;;;;5090843;27;20205;-50
2021/10/12 00:58:41;;;;;;;4.83;1.10;;;9.40;99.90;;;;;;5095614;28;20205;-47
2021/10/12 01:01:08;;;;;;;5.93;1.43;;;9.40;99.90;;;;;;5103791;28;20205;-52
2021/10/12 01:03:34;;;;;;;1.70;1.00;;;9.40;99.90;;;;;;5100486;28;20205;-48
2021/10/12 01:06:01;;;;;;;3.97;1.00;;;9.40;99.90;;;;;;5103749;28;20205;-48
2021/10/12 01:08:28;;;;;;;5.70;1.27;;;9.40;99.90;;;;;;5091637;28;20197;-48
2021/10/12 01:10:54;;;;;;;4.60;1.37;;;9.40;99.90;;;;;;5090498;28;20580;-49
2021/10/12 01:13:21;;;;;;;3.60;1.40;;;9.40;99.90;;;;;;5094513;28;20225;-49
2021/10/12 01:15:51;;;;;;;2.87;1.50;;;9.40;99.90;;;;;;5102942;28;20934;-48
2021/10/12 01:18:18;;;;;;;3.83;1.50;;;9.40;99.90;;;;;;5102494;28;20206;-51
2021/10/12 01:20:45;;;;;;;1.73;1.60;;;9.30;99.90;;;;;;5101801;28;20962;-46
2021/10/12 01:23:14;;;;;;;3.57;2.43;;;9.40;99.90;;;;;;5103680;28;20225;-48
2021/10/12 01:25:41;;;;;;;3.57;2.30;;;9.40;99.90;;;;;;5089501;28;20918;-52
2021/10/12 01:28:08;;;;;;;5.13;2.20;;;9.40;99.90;;;;;;5103650;28;20212;-49
2021/10/12 01:30:35;;;;;;;2.30;2.10;;;9.40;99.90;;;;;;5084534;28;20693;-48
2021/10/12 01:33:01;;;;;;;2.70;2.13;;;9.40;99.90;;;;;;5100202;28;20206;-46
2021/10/12 01:35:28;;;;;;;4.60;2.07;;;9.40;99.90;;;;;;5097914;28;20204;-49
2021/10/12 01:37:55;;;;;;;3.80;2.10;;;9.40;99.90;;;;;;5099038;28;20193;-46
2021/10/12 01:40:22;;;;;;;3.73;2.67;;;9.40;99.90;;;;;;5101428;28;20216;-49
2021/10/12 01:42:49;;;;;;;4.53;2.33;;;9.40;99.90;;;;;;5087163;28;20209;-53
2021/10/12 01:45:16;;;;;;;7.13;2.17;;;9.40;99.90;;;;;;5102994;28;20205;-49
2021/10/12 01:47:43;;;;;;;3.40;2.30;;;9.40;99.90;;;;;;5095522;28;20587;-49
2021/10/12 01:50:11;;;;;;;1.87;1.60;;;9.40;99.90;;;;;;5100724;28;20206;-44
2021/10/12 01:52:39;;;;;;;5.40;1.80;;;9.40;99.90;;;;;;5095784;28;20575;-50
2021/10/12 01:55:07;;;;;;;3.87;1.40;;;9.40;99.90;;;;;;5102134;28;20868;-46
2021/10/12 01:57:35;;;;;;;1.80;1.10;;;9.40;99.90;;;;;;5098857;27;20197;-52
2021/10/12 02:00:03;;;;;;;3.87;1.07;;;9.30;99.90;;;;;;5104150;28;20194;-48
2021/10/12 02:02:38;;;;;;;2.13;1.37;;;9.30;99.90;;;;;;5097815;27;20210;-50
2021/10/12 02:05:05;;;;;;;2.50;0.97;;;9.30;99.90;;;;;;5105875;28;20199;-46
2021/10/12 02:07:32;;;;;;;2.63;1.00;;;9.30;99.90;;;;;;5107970;28;20209;-50
2021/10/12 02:09:59;;;;;;;1.47;1.10;;;9.30;99.90;;;;;;5100010;28;20189;-50
2021/10/12 02:12:25;;;;;;;1.70;1.57;;;9.30;99.90;;;;;;5090143;27;20209;-50
2021/10/12 02:14:53;;;;;;;3.57;1.10;;;9.30;99.90;;;;;;5103782;28;20225;-48
2021/10/12 02:17:20;;;;;;;3.20;1.10;;;9.30;99.90;;;;;;5107200;28;20296;-50
2021/10/12 02:19:46;;;;;;;2.73;1.10;;;9.20;99.90;;;;;;5103277;27;20200;-49
2021/10/12 02:22:13;;;;;;;3.57;1.27;;;9.20;99.90;;;;;;5100257;28;20662;-48
2021/10/12 02:24:40;;;;;;;2.50;1.30;;;9.20;99.90;;;;;;5104924;28;20225;-54
2021/10/12 02:27:06;;;;;;;3.50;1.40;;;9.10;99.90;;;;;;5099222;28;20299;-46
2021/10/12 02:29:33;;;;;;;2.03;1.03;;;9.10;99.90;;;;;;5094323;27;20209;-47
2021/10/12 02:32:01;;;;;;;2.77;1.00;;;9.10;99.90;;;;;;5103484;28;20201;-48
2021/10/12 02:34:27;;;;;;;2.00;1.30;;;9.10;99.90;;;;;;5107392;28;20281;-49
2021/10/12 02:36:55;;;;;;;2.83;1.20;;;9.00;99.90;;;;;;5097850;27;20193;-48
2021/10/12 02:39:22;;;;;;;3.77;1.40;;;9.00;99.90;;;;;;5107942;27;20265;-48
2021/10/12 02:41:48;;;;;;;3.07;1.20;;;9.00;99.90;;;;;;5100374;28;20228;-52
2021/10/12 02:44:15;;;;;;;2.00;1.50;;;9.00;99.90;;;;;;5094096;27;20225;-45
2021/10/12 02:46:41;;;;;;;3.07;1.17;;;9.00;99.90;;;;;;5104463;28;20253;-51
2021/10/12 02:49:09;;;;;;;2.50;1.00;;;9.00;99.90;;;;;;5105355;28;20190;-47
2021/10/12 02:51:36;;;;;;;4.87;1.73;;;9.00;99.90;;;;;;5104738;28;20201;-51
2021/10/12 02:54:03;;;;;;;2.97;1.20;;;9.00;99.90;;;;;;5104197;28;20216;-46
2021/10/12 02:56:30;;;;;;;4.13;1.20;;;9.00;99.90;;;;;;5106681;28;20205;-48
2021/10/12 02:58:56;;;;;;;3.27;1.60;;;9.00;99.90;;;;;;5102256;28;20193;-49
2021/10/12 03:01:23;;;;;;;2.57;1.40;;;9.00;99.90;;;;;;5093265;27;20232;-50
2021/10/12 03:03:49;;;;;;;2.73;1.27;;;9.00;99.90;;;;;;5097942;28;20209;-46
2021/10/12 03:06:17;;;;;;;2.73;1.43;;;9.00;99.90;;;;;;5104358;28;20216;-46
2021/10/12 03:08:44;;;;;;;2.30;1.10;;;9.00;99.90;;;;;;5103429;28;20193;-48
2021/10/12 03:11:11;;;;;;;3.17;1.20;;;9.00;99.90;;;;;;5096066;28;20204;-47
2021/10/12 03:13:37;;;;;;;4.33;1.40;;;9.00;99.90;;;;;;5104803;28;20221;-50
2021/10/12 03:16:05;;;;;;;4.60;1.40;;;9.00;99.90;;;;;;5091139;27;20206;-51
2021/10/12 03:18:32;;;;;;;2.60;1.20;;;9.00;99.90;;;;;;5096870;28;20226;-47
2021/10/12 03:20:59;;;;;;;3.50;1.30;;;9.00;99.90;;;;;;5095887;28;20213;-53
2021/10/12 03:23:27;;;;;;;5.50;1.87;;;9.00;99.90;;;;;;5103324;28;20228;-48
2021/10/12 03:25:54;;;;;;;3.70;1.33;;;8.90;99.90;;;;;;5090033;28;20201;-50
2021/10/12 03:28:22;;;;;;;2.77;1.00;;;8.90;99.90;;;;;;5106591;28;20274;-47
2021/10/12 03:30:49;;;;;;;2.07;0.73;;;8.90;99.90;;;;;;5085242;27;20205;-48
2021/10/12 03:33:15;;;;;;;1.13;1.00;;;8.90;99.90;;;;;;5103386;27;20221;-47
2021/10/12 03:35:46;;;;;;;4.53;1.03;;;8.90;99.90;;;;;;5100279;27;20205;-47
2021/10/12 03:38:13;;;;;;;3.40;1.00;;;8.90;99.90;;;;;;5098394;28;20202;-45
2021/10/12 03:40:41;;;;;;;2.70;0.90;;;8.90;99.90;;;;;;5104502;28;20232;-51
2021/10/12 03:43:08;;;;;;;4.33;0.80;;;8.90;99.90;;;;;;5100814;27;20213;-46
2021/10/12 03:45:35;;;;;;;1.77;0.80;;;8.90;99.90;;;;;;5091493;28;20689;-47
2021/10/12 03:48:01;;;;;;;4.07;1.27;;;8.90;99.90;;;;;;5090659;27;20224;-47
2021/10/12 03:50:28;;;;;;;1.17;0.70;;;8.90;99.90;;;;;;5102615;28;20201;-49
2021/10/12 03:52:54;;;;;;;1.77;0.60;;;8.90;99.90;;;;;;5098042;28;20886;-49
2021/10/12 03:55:21;;;;;;;4.87;1.37;;;8.90;99.90;;;;;;5097248;28;20215;-48
2021/10/12 03:57:49;;;;;;;3.23;1.33;;;8.90;99.90;;;;;;5094971;28;20181;-52
2021/10/12 04:00:16;;;;;;;4.00;0.70;;;8.90;99.90;;;;;;5097835;28;20564;-46
2021/10/12 04:02:42;;;;;;;1.30;1.00;;;8.90;99.90;;;;;;5080197;27;20208;-50
2021/10/12 04:05:10;;;;;;;2.17;0.80;;;8.90;99.90;;;;;;5105291;28;20201;-48
2021/10/12 04:07:36;;;;;;;0.90;0.60;;;8.90;99.90;;;;;;5091173;28;20625;-51
2021/10/12 04:10:04;;;;;;;0.90;0.47;;;8.90;99.90;;;;;;5105184;28;20193;-45
2021/10/12 04:12:31;;;;;;;1.20;0.57;;;8.90;99.90;;;;;;5103075;28;20201;-47
2021/10/12 04:14:58;;;;;;;3.60;0.60;;;8.80;99.90;;;;;;5104144;28;20197;-47
2021/10/12 04:17:25;;;;;;;1.53;0.50;;;8.90;99.90;;;;;;5097315;27;20300;-48
2021/10/12 04:19:52;;;;;;;3.23;0.57;;;8.80;99.90;;;;;;5094836;27;20205;-46
2021/10/12 04:22:18;;;;;;;1.00;0.70;;;8.80;99.90;;;;;;5097692;28;20201;-47
2021/10/12 04:24:45;;;;;;;3.30;0.70;;;8.80;99.90;;;;;;5100719;28;20209;-49
2021/10/12 04:27:12;;;;;;;1.90;0.70;;;8.80;99.90;;;;;;5098732;28;20296;-45
2021/10/12 04:29:38;;;;;;;1.50;0.60;;;8.80;99.90;;;;;;5100469;27;20210;-50
2021/10/12 04:32:10;;;;;;;1.97;0.60;;;8.80;99.90;;;;;;5103808;28;20205;-45
2021/10/12 04:34:37;;;;;;;1.07;0.50;;;8.70;99.90;;;;;;5082064;27;20792;-48
2021/10/12 04:37:04;;;;;;;4.43;0.97;;;8.70;99.90;;;;;;5095324;27;20194;-45
2021/10/12 04:39:31;;;;;;;1.83;1.27;;;8.70;99.90;;;;;;5101346;28;20564;-49
2021/10/12 04:42:01;;;;;;;2.60;0.90;;;8.70;99.90;;;;;;5101759;28;20429;-48
2021/10/12 04:44:30;;;;;;;2.63;0.73;;;8.70;99.90;;;;;;5096514;27;20587;-48
2021/10/12 04:46:56;;;;;;;1.73;0.70;;;8.70;99.90;;;;;;5102503;28;20740;-45
2021/10/12 04:49:25;;;;;;;1.83;0.70;;;8.70;99.90;;;;;;5090471;27;20205;-53
2021/10/12 04:51:51;;;;;;;1.50;0.73;;;8.60;99.90;;;;;;5088967;28;20197;-46
2021/10/12 04:54:18;;;;;;;2.13;0.70;;;8.60;99.90;;;;;;5103878;28;20225;-49
2021/10/12 04:56:45;;;;;;;2.33;1.00;;;8.60;99.90;;;;;;5100643;28;20894;-47
2021/10/12 04:59:11;;;;;;;3.73;1.20;;;8.60;99.90;;;;;;5091972;28;20198;-52
2021/10/12 05:01:39;;;;;;;2.43;0.77;;;8.60;99.90;;;;;;5100666;28;20554;-47
2021/10/12 05:04:06;;;;;;;1.70;0.90;;;8.60;99.90;;;;;;5077720;28;22080;-49
2021/10/12 05:06:34;;;;;;;4.33;1.07;;;8.60;99.90;;;;;;5092342;28;20201;-45
2021/10/12 05:09:01;;;;;;;3.70;1.10;;;8.60;99.90;;;;;;5089359;28;20210;-54
2021/10/12 05:11:28;;;;;;;1.90;0.80;;;8.60;99.90;;;;;;5094656;28;20202;-46
2021/10/12 05:13:56;;;;;;;3.07;0.80;;;8.60;99.90;;;;;;5092889;27;20613;-53
2021/10/12 05:16:24;;;;;;;1.17;1.07;;;8.60;99.90;;;;;;5088977;28;20205;-50
2021/10/12 05:18:54;;;;;;;4.50;1.20;;;8.60;99.90;;;;;;5095225;28;20362;-51
2021/10/12 05:21:21;;;;;;;3.20;0.90;;;8.50;99.90;;;;;;5100051;28;20185;-52
2021/10/12 05:23:49;;;;;;;3.73;1.10;;;8.50;99.90;;;;;;5096361;28;20216;-52
2021/10/12 05:26:16;;;;;;;1.30;1.07;;;8.60;99.90;;;;;;5098654;28;20192;-50
2021/10/12 05:28:43;;;;;;;1.63;1.40;;;8.60;99.90;;;;;;5095799;28;20221;-47
2021/10/12 05:31:10;;;;;;;2.27;1.83;;;8.50;99.90;;;;;;5101094;28;20201;-46
2021/10/12 05:33:37;;;;;;;2.63;1.73;;;8.50;99.90;;;;;;5102016;28;20589;-45
2021/10/12 05:36:04;;;;;;;2.00;1.80;;;8.50;99.90;;;;;;5093657;27;20213;-45
2021/10/12 05:38:32;;;;;;;3.17;2.13;;;8.50;99.90;;;;;;5096031;27;20214;-47
2021/10/12 05:41:00;;;;;;;3.03;1.87;;;8.50;99.90;;;;;;5103862;28;20201;-47
2021/10/12 05:43:26;;;;;;;4.47;1.80;;;8.50;99.90;;;;;;5105216;28;20214;-50
2021/10/12 05:45:53;;;;;;;4.03;1.80;;;8.50;99.90;;;;;;5101002;28;20194;-48
2021/10/12 05:48:20;;;;;;;3.90;2.30;;;8.50;99.90;;;;;;5099696;28;20241;-47
2021/10/12 05:50:48;;;;;;;3.77;2.77;;;8.60;99.90;;;;;;5094869;27;20274;-47
2021/10/12 05:53:24;;;;;;;3.03;2.70;;;8.50;99.90;;;;;;5096442;28;20884;-52
2021/10/12 05:55:54;;;;;;;2.90;2.60;;;8.50;99.90;;;;;;5099433;28;20283;-50
2021/10/12 05:58:29;;;;;;;4.07;2.77;;;8.50;99.90;;;;;;5099147;28;20189;-47
2021/10/12 06:00:56;;;;;;;4.07;2.50;;;8.50;99.90;;;;;;5090031;27;20666;-50
2021/10/12 06:03:22;;;;;;;4.17;2.67;;;8.50;99.90;;;;;;5103224;28;20210;-49
2021/10/12 06:05:50;;;;;;;3.03;2.77;;;8.50;99.90;;;;;;5095284;27;20202;-53
2021/10/12 06:08:17;;;;;;;3.50;2.97;;;8.60;99.90;;;;;;5083743;27;21679;-45
2021/10/12 06:10:43;;;;;;;4.10;3.03;;;8.50;99.90;;;;;;5098596;28;20620;-46
2021/10/12 06:13:11;;;;;;;3.30;3.00;;;8.50;99.90;;;;;;5092679;28;20948;-50
2021/10/12 06:15:41;;;;;;;5.13;3.10;;;8.60;99.90;;;;;;5102323;28;20730;-51
2021/10/12 06:18:09;;;;;;;6.40;3.70;;;8.60;99.90;;;;;;5095148;28;20931;-48
2021/10/12 06:20:36;;;;;;;6.53;3.40;;;8.60;99.90;;;;;;5100076;28;20201;-53
2021/10/12 06:23:03;;;;;;;3.40;3.10;;;8.60;99.90;;;;;;5085041;27;20232;-49
2021/10/12 06:25:30;;;;;;;4.23;2.83;;;8.60;99.90;;;;;;5103824;28;20205;-51
2021/10/12 06:27:56;;;;;;;4.90;3.10;;;8.60;99.90;;;;;;5099584;28;20213;-51
2021/10/12 06:30:23;;;;;;;7.50;3.37;;;8.60;99.90;;;;;;5100808;28;20212;-51
2021/10/12 06:32:51;;;;;;;4.23;3.23;;;8.60;99.90;;;;;;5093669;28;20733;-46
2021/10/12 06:35:18;;;;;;;5.27;2.40;;;8.60;99.90;;;;;;5104703;28;20197;-51
2021/10/12 06:37:44;;;;;;;5.80;2.90;;;8.60;99.90;;;;;;5087711;27;20206;-51
2021/10/12 06:40:12;;;;;;;5.90;2.80;;;8.60;99.90;;;;;;5089941;27;20196;-46
2021/10/12 06:42:39;;;;;;;3.27;2.73;;;8.60;99.90;;;;;;5095150;28;20213;-50
2021/10/12 06:45:06;;;;;;;10.07;3.03;;;8.70;99.90;;;;;;5100539;28;20272;-50
2021/10/12 06:47:32;;;;;;;2.47;2.20;;;8.70;99.90;;;;;;5080433;27;20570;-49
2021/10/12 06:50:00;;;;;;;5.03;2.97;;;8.70;99.90;;;;;;5105083;27;20568;-47
2021/10/12 06:52:27;;;;;;;4.87;2.80;;;8.70;99.90;;;;;;5089929;27;20205;-50
2021/10/12 06:54:53;;;;;;;4.70;3.20;;;8.70;99.90;;;;;;5103028;27;20813;-47
2021/10/12 06:57:20;;;;;;;2.70;2.33;;;8.60;99.90;;;;;;5098895;28;20190;-47
2021/10/12 06:59:47;;;;;;;3.33;1.77;;;8.70;99.90;;;;;;5095716;28;20189;-52
2021/10/12 07:02:13;;;;;;;6.53;2.20;;;8.70;99.90;;;;;;5101945;28;20193;-51
2021/10/12 07:04:40;;;;;;;2.53;1.63;;;8.70;99.90;;;;;;5086858;27;20729;-48
2021/10/12 07:07:08;;;;;;;3.63;1.40;;;8.80;99.90;;;;;;5083211;28;20197;-48
2021/10/12 07:09:35;;;;;;;2.20;1.17;;;8.80;99.90;;;;;;5091563;27;20221;-48
2021/10/12 07:12:01;;;;;;;4.17;1.90;;;8.80;99.90;;;;;;5092273;28;20225;-50
2021/10/12 07:14:30;;;;;;;2.97;1.37;;;8.90;99.90;;;;;;5102138;28;20205;-45
2021/10/12 07:16:56;;;;;;;3.47;1.37;;;8.90;99.90;;;;;;5093218;28;20220;-47
2021/10/12 07:19:26;;;;;;;2.63;1.37;;;8.90;99.90;;;;;;5092253;28;20189;-48
2021/10/12 07:21:53;;;;;;;5.90;1.23;;;9.00;99.90;;;;;;5091082;28;20265;-50
2021/10/12 07:24:21;;;;;;;4.10;1.10;;;9.00;99.90;;;;;;5089377;27;20210;-46
2021/10/12 07:26:48;;;;;;;3.97;1.20;;;9.10;99.90;;;;;;5090818;28;20697;-53
2021/10/12 07:29:14;;;;;;;2.23;1.20;;;9.10;99.90;;;;;;5103533;28;20224;-49
2021/10/12 07:31:41;;;;;;;6.50;1.10;;;9.20;99.90;;;;;;5100405;27;20201;-48
2021/10/12 07:34:09;;;;;;;2.90;1.20;;;9.20;99.90;;;;;;5103316;28;20931;-47
2021/10/12 07:36:36;;;;;;;2.90;1.47;;;9.20;99.90;;;;;;5097094;28;20201;-48
2021/10/12 07:39:03;;;;;;;3.13;1.10;;;9.30;99.90;;;;;;5082231;27;20200;-49
2021/10/12 07:41:31;;;;;;;5.27;0.90;;;9.30;99.90;;;;;;5100025;28;20321;-47
2021/10/12 07:43:58;;;;;;;4.17;1.10;;;9.40;99.90;;;;;;5093394;27;20440;-51
2021/10/12 07:46:25;;;;;;;4.37;0.90;;;9.40;99.90;;;;;;5099468;28;20285;-45
2021/10/12 07:48:53;;;;;;;5.63;1.00;;;9.50;99.90;;;;;;5093646;27;20824;-47
2021/10/12 07:51:20;;;;;;;3.67;0.90;;;9.50;99.90;;;;;;5091407;28;20221;-48
2021/10/12 07:53:47;;;;;;;5.43;1.00;;;9.50;99.90;;;;;;5096496;28;20257;-52
2021/10/12 07:56:18;;;;;;;4.27;1.13;;;9.60;99.90;;;;;;5085504;27;20295;-45
2021/10/12 07:58:48;;;;;;;3.10;0.77;;;9.60;99.90;;;;;;5099102;28;20199;-51
2021/10/12 08:01:15;;;;;;;4.10;1.00;;;9.60;99.90;;;;;;5101931;28;20250;-48
2021/10/12 08:03:43;;;;;;;3.13;0.80;;;9.60;99.90;;;;;;5099957;28;20228;-50
2021/10/12 08:06:09;;;;;;;11.50;1.17;;;9.70;99.90;;;;;;5097116;28;21128;-49
2021/10/12 08:08:36;;;;;;;4.57;0.73;;;9.70;99.90;;;;;;5092600;28;20225;-50
2021/10/12 08:11:04;;;;;;;2.60;0.70;;;9.70;99.90;;;;;;5089129;27;20286;-48
2021/10/12 08:13:33;;;;;;;1.00;0.50;;;9.70;99.90;;;;;;5102943;28;20209;-50
2021/10/12 08:16:07;;;;;;;6.60;0.70;;;9.70;99.90;;;;;;5095178;28;20192;-49
2021/10/12 08:18:34;;;;;;;5.47;1.17;;;9.70;99.90;;;;;;5101144;28;20197;-51
2021/10/12 08:21:01;;;;;;;2.27;0.70;;;9.70;99.90;;;;;;5094584;28;21007;-45
2021/10/12 08:23:28;;;;;;;5.40;0.67;;;9.80;99.90;;;;;;5085115;28;20214;-48
2021/10/12 08:25:54;;;;;;;6.50;1.17;;;9.80;99.90;;;;;;5095286;28;20197;-46
2021/10/12 08:28:21;;;;;;;5.50;0.70;;;9.80;99.90;;;;;;5089031;27;20697;-46
2021/10/12 08:30:47;;;;;;;4.27;0.70;;;9.90;99.90;;;;;;5097680;27;20189;-52
2021/10/12 08:33:17;;;;;;;2.47;0.83;;;9.90;99.90;;;;;;5104086;28;20217;-46
2021/10/12 08:35:44;;;;;;;6.13;0.77;;;10.00;99.90;;;;;;5105632;27;20201;-48
2021/10/12 08:38:15;;;;;;;3.17;0.67;;;10.00;99.90;;;;;;5092036;27;20202;-46
2021/10/12 08:40:44;;;;;;;4.63;0.77;;;10.00;99.90;;;;;;5101166;28;20221;-47
2021/10/12 08:43:10;;;;;;;3.83;0.70;;;10.00;99.90;;;;;;5089960;27;20229;-46
2021/10/12 08:45:40;;;;;;;4.60;0.67;;;10.10;99.90;;;;;;5101943;28;20678;-47
2021/10/12 08:48:07;;;;;;;1.87;0.53;;;10.10;99.90;;;;;;5096675;28;20194;-48
2021/10/12 08:50:35;;;;;;;8.77;0.80;;;10.10;99.90;;;;;;5101805;28;20201;-48
2021/10/12 08:53:03;;;;;;;2.13;0.70;;;10.10;99.90;;;;;;5096855;28;20221;-46
2021/10/12 08:55:30;;;;;;;1.77;0.80;;;10.10;99.90;;;;;;5097877;28;20201;-49
2021/10/12 08:57:57;;;;;;;2.57;0.80;;;10.20;99.90;;;;;;5080144;27;20204;-49
2021/10/12 09:00:28;;;;;;;5.20;0.77;;;10.20;99.90;;;;;;5101828;28;20193;-50
2021/10/12 09:05:51;;;;;;;5.90;0.70;;;10.30;99.90;;;;;;5086066;28;20206;-47
2021/10/12 09:08:23;;;;;;;7.63;1.27;;;10.40;99.90;;;;;;5083313;28;20221;-50
2021/10/12 09:10:50;;;;;;;2.80;0.90;;;10.50;99.90;;;;;;5085009;28;20201;-46
2021/10/12 09:13:17;;;;;;;3.37;0.60;;;10.50;99.90;;;;;;5089502;28;20212;-47
2021/10/12 09:16:02;;;;;;;6.53;0.63;;;10.50;99.90;;;;;;5100753;27;20646;-51
2021/10/12 09:18:48;;;;;;;3.17;0.67;;;10.40;99.90;;;;;;5102834;28;20190;-50
2021/10/12 09:21:17;;;;;;;2.37;0.50;;;10.40;99.90;;;;;;5090129;28;20201;-47
2021/10/12 09:23:47;;;;;;;5.50;0.70;;;10.40;99.90;;;;;;5081261;27;21039;-49
2021/10/12 09:26:25;;;;;;;4.47;0.80;;;10.50;99.90;;;;;;5096703;28;20292;-51
2021/10/12 09:28:58;;;;;;;3.20;0.90;;;10.50;99.90;;;;;;5088168;28;20309;-48
2021/10/12 09:31:31;;;;;;;7.13;0.67;;;10.50;99.90;;;;;;5093142;28;20561;-50
2021/10/12 09:34:02;;;;;;;1.73;0.50;;;10.60;99.90;;;;;;5097416;28;20220;-45
2021/10/12 09:36:33;;;;;;;2.93;0.60;;;10.60;99.90;;;;;;5093078;28;20242;-47
2021/10/12 09:39:00;;;;;;;4.83;0.80;;;10.60;99.90;;;;;;5099209;28;20197;-44
2021/10/12 09:41:28;;;;;;;3.10;0.50;;;10.70;99.90;;;;;;5088538;28;20192;-53
2021/10/12 09:44:11;;;;;;;2.80;0.47;;;10.70;99.90;;;;;;5096007;28;20212;-45
2021/10/12 09:46:39;;;;;;;2.47;0.70;;;10.70;99.90;;;;;;5106954;27;20462;-49
2021/10/12 09:49:17;;;;;;;5.20;0.60;;;10.80;99.90;;;;;;5095912;27;20214;-50
2021/10/12 09:51:55;;;;;;;4.00;0.93;;;10.80;99.90;;;;;;5105466;28;20845;-47
2021/10/12 09:54:23;;;;;;;4.07;0.67;;;10.80;99.90;;;;;;5094896;28;22011;-52
2021/10/12 09:56:50;;;;;;;2.63;0.57;;;10.90;99.90;;;;;;5098616;28;20208;-48
2021/10/12 09:59:18;;;;;;;2.23;0.70;;;10.80;99.90;;;;;;5089184;28;20182;-48
2021/10/12 10:01:47;;;;;;;3.50;0.53;;;10.90;99.90;;;;;;5097007;28;20425;-47
2021/10/12 10:04:17;;;;;;;5.23;1.03;;;10.90;99.90;;;;;;5088831;28;20255;-53
2021/10/12 10:06:46;;;;;;;2.87;0.70;;;11.00;99.90;;;;;;5098776;28;21078;-50
2021/10/12 10:09:14;;;;;;;1.63;0.90;;;11.00;99.90;;;;;;5089127;28;20209;-53
2021/10/12 10:11:43;;;;;;;3.07;0.73;;;11.00;99.90;;;;;;5089887;28;20217;-48
2021/10/12 10:14:11;;;;;;;5.50;0.70;;;11.10;99.90;;;;;;5098299;28;20206;-51
2021/10/12 10:16:46;;;;;;;3.97;0.90;;;11.10;99.90;;;;;;5092079;27;20206;-48
2021/10/12 10:19:17;;;;;;;6.03;0.70;;;11.10;99.90;;;;;;5098920;28;20196;-48
2021/10/12 10:21:48;;;;;;;1.73;0.60;;;11.10;99.90;;;;;;5111749;27;20830;-47
2021/10/12 10:24:22;;;;;;;7.53;1.03;;;11.10;99.90;;;;;;5104009;27;20296;-53
2021/10/12 10:26:50;;;;;;;4.17;0.77;;;11.10;99.90;;;;;;5101205;27;20206;-48
2021/10/12 10:29:22;;;;;;;2.47;0.33;;;11.10;99.90;;;;;;5097752;27;20217;-50
2021/10/12 10:31:52;;;;;;;3.47;0.97;;;11.10;99.90;;;;;;5104664;27;20201;-51
2021/10/12 10:34:37;;;;;;;3.33;0.63;;;11.00;99.90;;;;;;5103474;28;20578;-47
2021/10/12 10:37:29;;;;;;;1.67;0.67;;;11.10;99.90;;;;;;5106341;27;20198;-48
2021/10/12 10:40:03;;;;;;;2.47;0.60;;;11.20;99.90;;;;;;5100634;28;20228;-49
2021/10/12 10:43:06;;;;;;;6.30;0.83;;;11.20;99.90;;;;;;5094039;27;20185;-47
2021/10/12 10:45:48;;;;;;;14.13;1.40;;;11.20;99.90;;;;;;5093376;27;20205;-47
2021/10/12 10:48:18;;;;;;;4.90;1.50;;;11.30;99.90;;;;;;5100642;27;20221;-49
2021/10/12 10:50:45;;;;;;;1.67;0.53;;;11.40;99.90;;;;;;5102937;28;20253;-47
2021/10/12 10:53:13;;;;;;;4.27;0.80;;;11.40;99.90;;;;;;5092442;27;20228;-51
2021/10/12 10:55:42;;;;;;;3.90;0.80;;;11.50;99.90;;;;;;5102539;27;20216;-48
2021/10/12 10:58:14;;;;;;;2.13;0.60;;;11.60;99.90;;;;;;5089426;27;20197;-45
2021/10/12 11:00:43;;;;;;;2.37;0.70;;;11.60;99.90;;;;;;5104766;27;20197;-48
2021/10/12 11:03:30;;;;;;;2.03;0.87;;;11.50;99.90;;;;;;5092324;27;20948;-50
2021/10/12 11:05:59;;;;;;;1.43;0.60;;;11.50;99.90;;;;;;5096634;28;20281;-48
2021/10/12 11:08:29;;;;;;;2.00;0.63;;;11.60;99.90;;;;;;5106070;27;20243;-51
2021/10/12 11:10:58;;;;;;;1.57;0.50;;;11.70;99.90;;;;;;5090549;27;20222;-52
2021/10/12 11:13:31;;;;;;;4.13;1.00;;;11.70;99.90;;;;;;5090750;28;20267;-50
2021/10/12 11:15:58;;;;;;;4.93;0.57;;;11.80;99.90;;;;;;5093630;27;20205;-48
2021/10/12 11:18:24;;;;;;;5.60;0.80;;;11.80;99.90;;;;;;5104159;27;20200;-47
2021/10/12 11:20:53;;;;;;;1.90;0.47;;;11.80;99.90;;;;;;5104010;27;20193;-47
2021/10/12 11:23:26;;;;;;;3.23;0.50;;;11.80;99.90;;;;;;5106613;27;20211;-50
2021/10/12 11:26:03;;;;;;;3.27;0.80;;;11.80;99.90;;;;;;5093117;27;20287;-49
2021/10/12 11:28:31;;;;;;;4.60;0.87;;;11.90;99.90;;;;;;5096182;28;20685;-53
2021/10/12 11:31:08;;;;;;;4.53;0.50;;;11.90;99.90;;;;;;5097927;27;20214;-48
2021/10/12 11:33:37;;;;;;;2.13;0.57;;;11.90;99.90;;;;;;5095271;27;20223;-51
2021/10/12 11:36:07;;;;;;;1.83;0.67;;;11.90;99.90;;;;;;5098965;27;20528;-51
2021/10/12 11:38:37;;;;;;;3.80;0.57;;;12.00;99.90;;;;;;5100192;28;20202;-47
2021/10/12 11:41:26;;;;;;;1.80;0.80;;;12.00;99.90;;;;;;5092565;27;20605;-49
2021/10/12 11:43:55;;;;;;;2.40;0.70;;;12.00;99.90;;;;;;5093675;27;20573;-49
2021/10/12 11:46:24;;;;;;;1.73;1.00;;;12.00;99.90;;;;;;5092900;28;20197;-49
2021/10/12 11:48:51;;;;;;;2.70;0.73;;;12.10;99.90;;;;;;5089883;27;20674;-51
2021/10/12 11:51:21;;;;;;;1.50;0.43;;;12.10;99.90;;;;;;5100008;27;20200;-48
2021/10/12 11:53:49;;;;;;;2.90;0.67;;;12.20;99.90;;;;;;5094651;28;20706;-48
2021/10/12 11:56:18;;;;;;;2.93;0.90;;;12.30;99.90;;;;;;5086460;28;20947;-46
2021/10/12 11:58:46;;;;;;;3.10;0.67;;;12.40;99.90;;;;;;5098376;28;20201;-48
2021/10/12 12:01:17;;;;;;;3.17;0.70;;;12.40;99.90;;;;;;5092491;27;20189;-47
2021/10/12 12:03:44;;;;;;;4.03;0.60;;;12.50;99.90;;;;;;5084682;27;20224;-46
2021/10/12 12:06:11;;;;;;;1.90;0.53;;;12.50;99.90;;;;;;5099413;28;20185;-47
2021/10/12 12:08:41;;;;;;;2.10;0.60;;;12.50;99.90;;;;;;5099412;28;20221;-48
2021/10/12 12:11:08;;;;;;;1.97;0.70;;;12.30;99.90;;;;;;5090497;28;20233;-44
2021/10/12 12:13:36;;;;;;;2.20;0.73;;;12.20;99.90;;;;;;5102105;28;20253;-52
2021/10/12 12:16:05;;;;;;;6.60;0.83;;;12.10;99.90;;;;;;5095045;27;20276;-45
2021/10/12 12:18:39;;;;;;;2.27;0.80;;;12.00;99.90;;;;;;5090579;27;20685;-49
2021/10/12 12:21:06;;;;;;;2.90;0.60;;;12.10;99.90;;;;;;5096460;28;20181;-46
2021/10/12 12:23:39;;;;;;;3.53;0.43;;;12.10;99.90;;;;;;5099869;28;20241;-53
2021/10/12 12:26:08;;;;;;;2.33;0.50;;;12.30;99.90;;;;;;5094862;27;20201;-50
2021/10/12 12:28:36;;;;;;;1.87;0.60;;;12.40;99.90;;;;;;5104017;28;20594;-47
2021/10/12 12:31:21;;;;;;;0.97;0.60;;;12.40;99.90;;;;;;5090420;27;20217;-52
2021/10/12 12:33:49;;;;;;;1.10;0.97;;;12.40;99.90;;;;;;5097378;27;20208;-46
2021/10/12 12:36:16;;;;;;;1.70;0.90;;;12.40;99.90;;;;;;5090773;27;20193;-45
2021/10/12 12:38:44;;;;;;;2.53;0.73;;;12.30;99.90;;;;;;5104460;27;20242;-51
2021/10/12 12:41:22;;;;;;;5.13;0.90;;;12.20;99.90;;;;;;5085153;27;20201;-48
2021/10/12 12:43:53;;;;;;;4.97;0.90;;;12.20;99.90;;;;;;5094796;28;20213;-47
2021/10/12 12:46:23;;;;;;;2.83;0.87;;;12.20;99.90;;;;;;5090165;27;20208;-49
2021/10/12 12:49:05;;;;;;;2.30;0.53;;;12.20;99.90;;;;;;5086264;27;20198;-50
2021/10/12 12:51:32;;;;;;;2.90;0.80;;;12.30;99.90;;;;;;5093610;27;20609;-50
2021/10/12 12:53:59;;;;;;;3.53;0.90;;;12.40;99.90;;;;;;5094736;28;20209;-46
2021/10/12 12:56:33;;;;;;;2.37;0.70;;;12.40;99.90;;;;;;5097795;27;20201;-49
2021/10/12 12:59:09;;;;;;;2.90;0.63;;;12.40;99.90;;;;;;5095200;27;20196;-51
2021/10/12 13:01:38;;;;;;;0.80;0.40;;;12.40;99.90;;;;;;5096964;28;20261;-53
2021/10/12 13:04:05;;;;;;;2.87;0.60;;;12.40;99.90;;;;;;5094934;28;20221;-48